Time;durP1;ratioP1;P1;durP2;ratioP2;P2;SDS_P1;SDS_P2;PMS_P1;PMS_P2;Temp;Humidity;BMP_temperature;BMP_pressure;BME280_temperature;BME280_humidity;BME280_pressure;Samples;Min_cycle;Max_cycle;Signal;HPM_P1;HPM_P2
2023/01/18 00:01:08;;;;;;;14.77;11.30;;;1.00;99.90;;;1.65;100.00;94964.75;5216461;28;20203;-59
2023/01/18 00:03:42;;;;;;;13.93;11.47;;;1.10;99.90;;;1.66;100.00;94958.94;5217131;28;20868;-58
2023/01/18 00:06:15;;;;;;;16.63;11.33;;;1.10;99.90;;;1.68;100.00;94959.84;5216128;28;20223;-58
2023/01/18 00:08:48;;;;;;;15.23;11.67;;;1.10;99.90;;;1.62;100.00;94962.09;5220716;28;20210;-57
2023/01/18 00:11:21;;;;;;;14.97;11.90;;;1.10;99.90;;;1.58;100.00;94957.75;5226025;28;20661;-55
2023/01/18 00:13:56;;;;;;;15.87;12.93;;;1.00;99.90;;;1.62;100.00;94963.78;5223536;28;20251;-57
2023/01/18 00:16:30;;;;;;;15.43;11.83;;;1.00;99.90;;;1.53;100.00;94961.72;5221690;28;20727;-57
2023/01/18 00:19:05;;;;;;;13.43;11.93;;;0.90;99.90;;;1.54;100.00;94961.75;5216081;28;20201;-58
2023/01/18 00:21:38;;;;;;;15.63;13.03;;;1.00;99.90;;;1.47;100.00;94957.28;5221112;28;20217;-55
2023/01/18 00:24:13;;;;;;;13.93;11.43;;;0.90;99.90;;;1.52;100.00;94954.97;5220382;28;20222;-56
2023/01/18 00:26:46;;;;;;;14.50;12.10;;;0.90;99.90;;;1.57;100.00;94958.53;5222502;28;20208;-59
2023/01/18 00:29:21;;;;;;;14.87;12.70;;;1.00;99.90;;;1.77;100.00;94962.78;5212347;28;20300;-57
2023/01/18 00:31:54;;;;;;;16.53;11.30;;;1.00;99.90;;;1.72;100.00;94964.25;5221507;28;20211;-56
2023/01/18 00:34:27;;;;;;;13.30;11.93;;;1.10;99.90;;;1.68;100.00;94962.38;5223425;28;20216;-58
2023/01/18 00:37:00;;;;;;;13.60;12.03;;;1.10;99.90;;;1.69;100.00;94949.00;5221532;28;20350;-56
2023/01/18 00:39:33;;;;;;;16.10;13.00;;;1.10;99.90;;;1.64;100.00;94954.63;5221017;28;20230;-58
2023/01/18 00:44:59;;;;;;;14.00;11.77;;;1.10;99.90;;;1.73;100.00;94955.03;5218391;28;20308;-56
2023/01/18 00:47:31;;;;;;;13.87;12.40;;;1.10;99.90;;;1.74;100.00;94954.22;5217741;28;20189;-57
2023/01/18 00:50:06;;;;;;;15.23;11.97;;;1.10;99.90;;;1.69;100.00;94956.56;5219956;28;20205;-57
2023/01/18 00:52:39;;;;;;;13.40;11.80;;;1.00;99.90;;;1.69;100.00;94959.06;5221489;28;20606;-59
2023/01/18 00:55:13;;;;;;;16.20;13.07;;;1.10;99.90;;;1.67;100.00;94968.22;5220586;28;20204;-57
2023/01/18 00:57:46;;;;;;;15.83;13.07;;;1.10;99.90;;;1.68;100.00;94962.38;5221895;28;20299;-58
2023/01/18 01:00:25;;;;;;;14.73;12.60;;;1.10;99.90;;;1.69;100.00;94960.72;5220392;28;20204;-58
2023/01/18 01:02:59;;;;;;;14.10;12.40;;;1.10;99.90;;;1.67;100.00;94964.84;5221203;28;20231;-59
2023/01/18 01:08:23;;;;;;;15.97;12.63;;;1.10;99.90;;;1.68;100.00;94972.44;5221897;28;21054;-57
2023/01/18 01:11:07;;;;;;;14.30;12.53;;;1.10;99.90;;;1.67;100.00;94970.72;5221170;28;20204;-57
2023/01/18 01:27:56;;;;;;;16.77;14.77;;;1.00;99.90;;;1.62;100.00;94991.47;5221339;28;20206;-58
2023/01/18 01:30:29;;;;;;;15.80;13.60;;;1.00;99.90;;;1.59;100.00;94989.66;5217896;28;20298;-59
2023/01/18 01:33:03;;;;;;;17.53;14.17;;;1.00;99.90;;;1.60;100.00;94986.34;5219885;28;20757;-58
2023/01/18 01:35:36;;;;;;;15.07;13.57;;;1.00;99.90;;;1.58;100.00;94990.47;5220514;28;20300;-60
2023/01/18 01:38:09;;;;;;;15.50;13.70;;;1.00;99.90;;;1.56;100.00;94997.06;5220073;28;20773;-57
2023/01/18 01:40:42;;;;;;;20.07;14.33;;;1.00;99.90;;;1.53;100.00;94997.81;5221435;28;20295;-60
2023/01/18 01:43:15;;;;;;;18.07;14.07;;;1.00;99.90;;;1.50;100.00;94996.81;5220564;28;20221;-60
2023/01/18 01:45:49;;;;;;;17.13;14.53;;;1.00;99.90;;;1.49;100.00;95003.50;5219756;28;20305;-57
2023/01/18 01:48:23;;;;;;;17.83;14.67;;;1.00;99.90;;;1.47;100.00;94996.69;5219626;28;20210;-59
2023/01/18 01:50:56;;;;;;;15.97;14.33;;;1.00;99.90;;;1.46;100.00;94994.94;5218918;28;20218;-59
2023/01/18 01:53:29;;;;;;;17.97;14.53;;;1.00;99.90;;;1.46;100.00;94993.31;5220960;28;20697;-59
2023/01/18 01:56:03;;;;;;;17.53;15.13;;;0.90;99.90;;;1.48;100.00;95000.91;5219802;28;20218;-58
2023/01/18 01:58:37;;;;;;;17.00;14.87;;;1.00;99.90;;;1.46;100.00;95000.84;5218996;28;20318;-57
2023/01/18 02:01:10;;;;;;;17.70;15.80;;;0.90;99.90;;;1.48;100.00;95005.94;5219170;28;20208;-59
2023/01/18 02:03:44;;;;;;;18.63;16.33;;;1.00;99.90;;;1.49;100.00;95005.16;5218018;28;20617;-60
2023/01/18 02:06:30;;;;;;;17.50;15.70;;;1.00;99.90;;;1.52;100.00;95010.34;5217957;28;20650;-59
2023/01/18 02:09:06;;;;;;;19.90;15.73;;;1.00;99.90;;;1.51;100.00;95003.56;5226019;28;20194;-58
2023/01/18 02:11:41;;;;;;;20.57;15.90;;;1.00;99.90;;;1.50;100.00;95007.72;5223640;28;20293;-59
2023/01/18 02:14:15;;;;;;;18.17;16.17;;;1.00;99.90;;;1.49;100.00;95006.03;5221339;28;20222;-58
2023/01/18 02:17:08;;;;;;;18.50;15.90;;;0.90;99.90;;;1.49;100.00;95010.19;5222824;28;20221;-59
2023/01/18 02:20:23;;;;;;;20.47;15.87;;;0.90;99.90;;;1.50;100.00;95012.75;5219376;28;20243;-59
2023/01/18 02:23:33;;;;;;;19.27;15.30;;;0.90;99.90;;;1.55;100.00;95018.88;5218591;28;20272;-58
2023/01/18 02:26:43;;;;;;;18.97;15.83;;;1.00;99.90;;;1.51;100.00;95021.16;5200569;28;20207;-59
2023/01/18 02:29:25;;;;;;;20.50;15.47;;;1.00;99.90;;;1.53;100.00;95022.97;5221724;28;20215;-57
2023/01/18 02:32:14;;;;;;;20.13;14.97;;;1.00;99.90;;;1.54;100.00;95031.38;5218127;28;20361;-59
2023/01/18 02:34:50;;;;;;;21.10;16.37;;;1.00;99.90;;;1.56;100.00;95032.31;5218494;28;20292;-59
2023/01/18 02:37:38;;;;;;;21.97;17.03;;;1.00;99.90;;;1.57;100.00;95031.50;5220601;28;20204;-59
2023/01/18 02:40:21;;;;;;;21.07;17.00;;;1.00;99.90;;;1.57;100.00;95023.97;5220801;28;20673;-60
2023/01/18 02:48:43;;;;;;;19.90;16.60;;;1.00;99.90;;;1.62;100.00;95031.72;5218077;28;20236;-59
2023/01/18 02:51:16;;;;;;;20.83;15.67;;;1.00;99.90;;;1.64;100.00;95037.69;5215715;28;20235;-58
2023/01/18 02:53:49;;;;;;;20.63;16.20;;;1.00;99.90;;;1.70;100.00;95043.00;5218999;28;20228;-58
2023/01/18 02:56:27;;;;;;;19.00;15.53;;;1.10;99.90;;;1.70;100.00;95043.00;5220329;28;20215;-56
2023/01/18 02:59:08;;;;;;;18.60;16.27;;;1.10;99.90;;;1.75;100.00;95034.88;5217911;28;20256;-58
2023/01/18 03:01:46;;;;;;;20.73;16.53;;;1.10;99.90;;;1.75;100.00;95034.00;5219411;28;20584;-59
2023/01/18 03:04:24;;;;;;;20.00;16.33;;;1.10;99.90;;;1.76;100.00;95036.56;5216988;28;20220;-58
2023/01/18 03:07:04;;;;;;;18.00;15.93;;;1.10;99.90;;;1.72;100.00;95039.78;5217325;28;20210;-57
2023/01/18 03:09:40;;;;;;;20.80;16.20;;;1.10;99.90;;;1.72;100.00;95039.78;5219423;28;20203;-61
2023/01/18 03:12:24;;;;;;;20.27;17.13;;;1.10;99.90;;;1.78;100.00;95041.69;5219483;28;20658;-58
2023/01/18 03:15:07;;;;;;;20.87;17.37;;;1.10;99.90;;;1.79;100.00;95050.97;5218167;28;20209;-59
2023/01/18 03:17:45;;;;;;;21.60;17.33;;;1.10;99.90;;;1.77;100.00;95048.41;5217320;28;20204;-59
2023/01/18 03:20:24;;;;;;;19.40;16.60;;;1.10;99.90;;;1.76;100.00;95049.16;5217908;28;20347;-60
2023/01/18 03:25:57;;;;;;;22.40;17.27;;;1.20;99.90;;;1.80;100.00;95048.53;5219013;28;20213;-59
2023/01/18 03:34:30;;;;;;;20.70;16.73;;;1.20;99.90;;;1.94;100.00;95060.84;5220112;28;20694;-59
2023/01/18 03:37:07;;;;;;;23.03;18.07;;;1.20;99.90;;;1.93;100.00;95054.09;5216834;28;20679;-58
2023/01/18 03:39:45;;;;;;;20.50;17.77;;;1.20;99.90;;;1.91;100.00;95055.69;5217446;28;20225;-58
2023/01/18 03:42:23;;;;;;;20.87;17.03;;;1.20;99.90;;;1.96;100.00;95054.22;5219114;28;20219;-60
2023/01/18 03:45:04;;;;;;;21.57;17.63;;;1.20;99.90;;;1.97;100.00;95056.78;5218778;28;20192;-59
2023/01/18 03:47:38;;;;;;;22.30;17.00;;;1.20;99.90;;;2.03;100.00;95057.09;5216665;28;20586;-59
2023/01/18 03:50:12;;;;;;;24.77;19.53;;;1.20;99.90;;;1.97;100.00;95060.97;5218497;28;20687;-59
2023/01/18 03:52:54;;;;;;;23.33;18.60;;;1.20;99.90;;;1.92;100.00;95067.50;5217182;28;20231;-59
2023/01/18 03:55:36;;;;;;;24.73;18.57;;;1.20;99.90;;;1.89;100.00;95072.38;5217902;28;20201;-58
2023/01/18 03:58:11;;;;;;;26.23;18.70;;;1.20;99.90;;;1.92;100.00;95067.50;5222845;28;20258;-59
2023/01/18 04:00:44;;;;;;;27.07;19.80;;;1.20;99.90;;;1.94;100.00;95070.91;5218737;28;20567;-59
2023/01/18 04:03:18;;;;;;;23.40;19.70;;;1.20;99.90;;;1.94;100.00;95070.91;5217422;28;20311;-60
2023/01/18 04:05:52;;;;;;;28.90;20.37;;;1.20;99.90;;;1.94;100.00;95071.78;5214800;28;20314;-58
2023/01/18 04:08:25;;;;;;;29.67;19.60;;;1.30;99.90;;;2.07;100.00;95069.81;5224413;28;20829;-58
2023/01/18 04:10:58;;;;;;;27.23;19.97;;;1.20;99.90;;;2.01;100.00;95080.47;5221950;28;20731;-59
2023/01/18 04:13:31;;;;;;;27.83;19.40;;;1.30;99.90;;;1.99;100.00;95079.53;5221121;28;20304;-59
2023/01/18 04:16:05;;;;;;;26.87;20.50;;;1.30;99.90;;;2.02;100.00;95078.00;5220247;28;20300;-59
2023/01/18 04:18:38;;;;;;;26.47;19.23;;;1.30;99.90;;;2.03;100.00;95076.34;5222343;28;20232;-58
2023/01/18 04:21:12;;;;;;;23.50;19.37;;;1.30;99.90;;;2.02;100.00;95074.63;5219891;28;20208;-57
2023/01/18 04:23:45;;;;;;;23.27;19.17;;;1.30;99.90;;;1.99;100.00;95072.00;5224430;28;20260;-59
2023/01/18 04:26:18;;;;;;;25.10;19.57;;;1.30;99.90;;;1.99;100.00;95084.59;5221185;28;20242;-57
2023/01/18 04:28:51;;;;;;;26.43;19.70;;;1.20;99.90;;;1.92;100.00;95087.63;5219624;28;20197;-59
2023/01/18 04:31:24;;;;;;;27.83;19.67;;;1.20;99.90;;;1.92;100.00;95095.19;5224511;28;20207;-58
2023/01/18 04:33:57;;;;;;;28.43;20.00;;;1.20;99.90;;;2.00;100.00;95101.41;5226748;28;20311;-57
2023/01/18 04:36:32;;;;;;;24.33;18.93;;;1.20;99.90;;;1.92;100.00;95097.72;5223059;28;20208;-58
2023/01/18 04:39:05;;;;;;;27.20;19.80;;;1.10;99.90;;;1.93;100.00;95099.44;5222509;28;20216;-58
2023/01/18 04:41:38;;;;;;;24.83;19.20;;;1.20;99.90;;;1.91;100.00;95101.88;5219647;28;20316;-59
2023/01/18 04:44:12;;;;;;;21.87;17.20;;;1.20;99.90;;;1.91;100.00;95108.56;5221128;28;20216;-60
2023/01/18 04:46:46;;;;;;;22.93;18.37;;;1.20;99.90;;;1.96;100.00;95104.59;5221481;28;20201;-58
2023/01/18 04:49:19;;;;;;;22.13;16.97;;;1.20;99.90;;;1.93;100.00;95115.38;5218680;28;20201;-59
2023/01/18 04:51:54;;;;;;;24.53;18.10;;;1.20;99.90;;;1.94;100.00;95112.06;5219767;28;20291;-58
2023/01/18 04:54:27;;;;;;;24.70;18.47;;;1.30;99.90;;;1.96;100.00;95122.22;5221428;28;20221;-57
2023/01/18 04:57:00;;;;;;;23.40;18.07;;;1.30;99.90;;;2.01;100.00;95123.31;5221280;28;20570;-59
2023/01/18 04:59:33;;;;;;;23.70;18.43;;;1.30;99.90;;;2.06;100.00;95131.03;5220088;28;20310;-58
2023/01/18 05:02:06;;;;;;;22.70;17.43;;;1.30;99.90;;;2.05;100.00;95129.34;5223963;28;20683;-58
2023/01/18 05:04:39;;;;;;;23.33;16.87;;;1.30;99.90;;;2.02;100.00;95145.16;5222267;28;20229;-57
2023/01/18 05:07:14;;;;;;;22.53;16.93;;;1.30;99.90;;;2.00;100.00;95146.75;5223766;28;20658;-56
2023/01/18 05:09:47;;;;;;;22.93;16.60;;;1.30;99.90;;;1.97;100.00;95151.66;5221540;28;20681;-59
2023/01/18 05:12:20;;;;;;;21.50;16.83;;;1.20;99.90;;;1.97;100.00;95156.69;5219995;28;20730;-58
2023/01/18 05:14:53;;;;;;;22.13;17.03;;;1.20;99.90;;;2.01;100.00;95156.03;5220670;28;20233;-59
2023/01/18 05:17:29;;;;;;;19.63;16.30;;;1.30;99.90;;;2.04;100.00;95163.75;5219130;28;20206;-58
2023/01/18 05:20:05;;;;;;;22.83;16.93;;;1.30;99.90;;;2.06;100.00;95171.34;5220115;28;20331;-57
2023/01/18 05:22:39;;;;;;;20.77;16.50;;;1.30;99.90;;;2.01;100.00;95183.75;5219572;28;20379;-58
2023/01/18 05:25:12;;;;;;;22.27;17.03;;;1.20;99.90;;;2.01;100.00;95181.22;5224033;28;20210;-58
2023/01/18 05:27:45;;;;;;;24.57;17.97;;;1.20;99.90;;;1.96;100.00;95185.19;5230959;28;20211;-59
2023/01/18 05:30:19;;;;;;;21.00;16.53;;;1.20;99.90;;;1.97;100.00;95191.94;5221073;28;20295;-59
2023/01/18 05:32:52;;;;;;;20.00;15.43;;;1.20;99.90;;;1.97;100.00;95200.34;5222574;28;20226;-59
2023/01/18 05:35:25;;;;;;;18.37;14.00;;;1.20;99.90;;;1.96;100.00;95206.19;5223965;28;21102;-58
2023/01/18 05:37:59;;;;;;;17.50;14.90;;;1.20;99.90;;;1.97;100.00;95204.53;5226780;28;20202;-56
2023/01/18 05:40:32;;;;;;;19.20;15.27;;;1.20;99.90;;;1.94;100.00;95204.41;5221777;28;20680;-57
2023/01/18 05:43:05;;;;;;;18.67;14.80;;;1.20;99.90;;;1.96;100.00;95211.22;5221292;28;20228;-57
2023/01/18 05:45:39;;;;;;;18.67;14.97;;;1.20;99.90;;;1.97;100.00;95212.09;5227800;28;20551;-58
2023/01/18 05:48:12;;;;;;;18.17;14.97;;;1.20;99.90;;;1.95;100.00;95224.63;5220316;28;20205;-59
2023/01/18 05:50:48;;;;;;;20.13;15.10;;;1.20;99.90;;;1.97;100.00;95227.19;5223731;28;20618;-54
2023/01/18 05:53:23;;;;;;;16.73;14.90;;;1.20;99.90;;;1.92;100.00;95231.19;5223393;28;20219;-54
2023/01/18 05:55:58;;;;;;;18.40;14.67;;;1.10;99.90;;;1.95;100.00;95236.38;5225089;28;20235;-57
2023/01/18 05:58:32;;;;;;;20.33;16.17;;;1.20;99.90;;;1.96;100.00;95230.53;5222598;28;20323;-55
2023/01/18 06:01:06;;;;;;;20.00;15.57;;;1.10;99.90;;;1.97;100.00;95237.28;5219829;28;20361;-58
2023/01/18 06:03:40;;;;;;;23.47;17.57;;;1.20;99.90;;;1.87;100.00;95241.03;5216689;28;20292;-59
2023/01/18 06:06:15;;;;;;;22.10;16.57;;;1.10;99.90;;;1.86;100.00;95253.53;5223356;28;20199;-59
2023/01/18 06:08:49;;;;;;;21.93;17.03;;;1.00;99.90;;;1.78;100.00;95251.53;5226081;28;20259;-55
2023/01/18 06:11:22;;;;;;;23.80;16.60;;;1.00;99.90;;;1.73;100.00;95267.22;5228356;28;20265;-56
2023/01/18 06:13:55;;;;;;;22.87;18.43;;;1.00;99.90;;;1.70;100.00;95272.09;5236510;28;20349;-58
2023/01/18 06:16:28;;;;;;;24.00;17.67;;;1.00;99.90;;;1.69;100.00;95276.28;5232246;28;20211;-59
2023/01/18 06:19:02;;;;;;;23.43;17.30;;;1.00;99.90;;;1.68;100.00;95283.72;5224148;28;20270;-60
2023/01/18 06:21:35;;;;;;;22.30;17.60;;;1.00;99.90;;;1.55;100.00;95283.16;5215679;28;20223;-58
2023/01/18 06:24:10;;;;;;;24.17;18.37;;;1.00;99.90;;;1.51;100.00;95285.41;5223112;28;20590;-60
2023/01/18 06:26:43;;;;;;;26.27;19.73;;;0.90;99.90;;;1.50;100.00;95301.31;5224004;28;20661;-57
2023/01/18 06:29:16;;;;;;;22.17;18.43;;;0.90;99.90;;;1.55;100.00;95302.41;5222723;28;20225;-61
2023/01/18 06:31:49;;;;;;;26.93;18.70;;;0.90;99.90;;;1.54;100.00;95308.22;5223487;28;20214;-61
2023/01/18 06:34:22;;;;;;;23.67;19.47;;;0.90;99.90;;;1.55;100.00;95308.31;5224121;28;20217;-59
2023/01/18 06:36:55;;;;;;;27.20;20.70;;;0.90;99.90;;;1.56;100.00;95307.50;5221282;28;20664;-60
2023/01/18 06:39:29;;;;;;;28.47;21.33;;;0.80;99.90;;;1.53;100.00;95316.56;5222644;28;20293;-61
2023/01/18 06:42:03;;;;;;;25.43;19.73;;;0.80;99.90;;;1.47;100.00;95313.75;5223945;28;20319;-61
2023/01/18 06:44:36;;;;;;;26.33;19.97;;;0.80;99.90;;;1.40;100.00;95315.06;5218708;28;20220;-60
2023/01/18 06:47:09;;;;;;;25.83;19.63;;;0.80;99.90;;;1.36;100.00;95320.75;5229483;28;20207;-60
2023/01/18 06:49:43;;;;;;;26.43;19.73;;;0.80;99.90;;;1.37;100.00;95317.44;5223136;28;20260;-59
2023/01/18 06:52:16;;;;;;;25.47;18.63;;;0.70;99.90;;;1.43;100.00;95332.00;5222930;28;20570;-59
2023/01/18 06:54:51;;;;;;;24.47;19.20;;;0.80;99.90;;;1.39;100.00;95340.19;5224723;28;20219;-59
2023/01/18 06:57:24;;;;;;;24.40;18.80;;;0.80;99.90;;;1.35;100.00;95340.03;5224943;28;20584;-61
2023/01/18 06:59:57;;;;;;;24.63;18.60;;;0.80;99.90;;;1.31;100.00;95345.66;5224682;28;20239;-59
2023/01/18 07:02:30;;;;;;;21.83;17.77;;;0.70;99.90;;;1.31;100.00;95348.19;5223931;28;20570;-59
2023/01/18 07:05:05;;;;;;;21.67;17.80;;;0.70;99.90;;;1.35;100.00;95352.59;5223952;28;20309;-61
2023/01/18 07:07:38;;;;;;;24.63;18.90;;;0.70;99.90;;;1.37;100.00;95361.88;5220548;28;20294;-59
2023/01/18 07:10:13;;;;;;;21.87;16.17;;;0.70;99.90;;;1.35;100.00;95365.19;5227016;28;20198;-59
2023/01/18 07:12:49;;;;;;;21.67;16.47;;;0.70;99.90;;;1.38;100.00;95373.69;5228695;28;20334;-59
2023/01/18 07:15:22;;;;;;;18.97;16.03;;;0.70;99.90;;;1.37;100.00;95376.97;5224368;28;20281;-59
2023/01/18 07:17:55;;;;;;;17.27;15.43;;;0.70;99.90;;;1.33;100.00;95391.91;5223903;28;20240;-59
2023/01/18 07:20:29;;;;;;;18.30;15.20;;;0.70;99.90;;;1.42;100.00;95385.63;5222702;28;20221;-59
2023/01/18 07:23:03;;;;;;;17.07;15.07;;;0.70;99.90;;;1.38;100.00;95403.88;5224372;28;20316;-59
2023/01/18 07:25:37;;;;;;;17.17;15.37;;;0.70;99.90;;;1.31;100.00;95402.69;5220650;28;20238;-59
2023/01/18 07:28:11;;;;;;;16.90;15.03;;;0.70;99.90;;;1.33;100.00;95412.03;5223872;28;20628;-60
2023/01/18 07:30:46;;;;;;;16.67;14.87;;;0.80;99.90;;;1.33;100.00;95418.72;5223683;28;20237;-59
2023/01/18 07:33:19;;;;;;;16.00;14.33;;;0.70;99.90;;;1.31;100.00;95421.16;5221689;28;20312;-60
2023/01/18 07:35:53;;;;;;;14.93;13.37;;;0.70;99.90;;;1.31;100.00;95426.19;5224802;28;20216;-61
2023/01/18 07:38:26;;;;;;;13.83;12.53;;;0.70;99.90;;;1.33;100.00;95432.16;5224268;28;20293;-61
2023/01/18 07:41:04;;;;;;;13.50;12.10;;;0.70;99.90;;;1.29;100.00;95437.84;5223959;28;20251;-57
2023/01/18 07:43:37;;;;;;;14.07;12.67;;;0.70;99.90;;;1.40;100.00;95437.53;5221634;28;20651;-59
2023/01/18 07:46:14;;;;;;;12.70;11.50;;;0.70;99.90;;;1.30;100.00;95437.03;5223404;28;20231;-61
2023/01/18 07:48:48;;;;;;;12.03;10.87;;;0.60;99.90;;;1.30;100.00;95451.28;5223683;28;20205;-59
2023/01/18 07:51:22;;;;;;;11.10;10.10;;;0.60;99.90;;;1.36;100.00;95451.59;5224095;28;20207;-59
2023/01/18 07:53:55;;;;;;;11.10;10.07;;;0.70;99.90;;;1.39;100.00;95450.91;5224182;28;20228;-58
2023/01/18 07:56:29;;;;;;;10.57;9.67;;;0.70;99.90;;;1.40;100.00;95456.00;5223361;28;20248;-58
2023/01/18 07:59:03;;;;;;;10.30;9.30;;;0.70;99.90;;;1.48;100.00;95466.47;5223769;28;20727;-60
2023/01/18 08:01:36;;;;;;;9.70;8.80;;;0.80;99.90;;;1.43;100.00;95472.91;5217485;28;20225;-59
2023/01/18 08:04:10;;;;;;;10.17;9.30;;;0.80;99.90;;;1.43;100.00;95470.41;5223913;28;20232;-59
2023/01/18 08:06:43;;;;;;;11.23;9.50;;;0.80;99.90;;;1.52;100.00;95476.78;5223793;28;20568;-57
2023/01/18 08:09:16;;;;;;;10.80;9.70;;;0.80;99.90;;;1.48;100.00;95484.09;5223619;28;20204;-59
2023/01/18 08:11:50;;;;;;;11.10;10.20;;;0.80;99.90;;;1.48;100.00;95491.66;5223766;28;20629;-57
2023/01/18 08:14:23;;;;;;;11.27;10.17;;;0.80;99.90;;;1.50;100.00;95497.63;5222845;28;20228;-58
2023/01/18 08:16:56;;;;;;;11.43;10.30;;;0.80;99.90;;;1.50;100.00;95503.53;5223955;28;20278;-60
2023/01/18 08:19:29;;;;;;;10.60;9.70;;;0.80;99.90;;;1.57;100.00;95497.16;5228804;28;20209;-59
2023/01/18 08:22:03;;;;;;;10.70;9.80;;;0.80;99.90;;;1.48;100.00;95512.63;5223912;28;20622;-59
2023/01/18 08:24:36;;;;;;;11.17;10.17;;;0.80;99.90;;;1.43;100.00;95505.63;5216003;28;20686;-56
2023/01/18 08:27:11;;;;;;;11.13;10.27;;;0.70;99.90;;;1.46;100.00;95516.75;5223763;28;20251;-58
2023/01/18 08:29:45;;;;;;;11.23;10.13;;;0.80;99.90;;;1.51;100.00;95525.38;5222832;28;20222;-58
2023/01/18 08:32:18;;;;;;;10.57;9.67;;;0.80;99.90;;;1.62;100.00;95537.69;5223344;28;20283;-56
2023/01/18 08:34:51;;;;;;;12.40;11.17;;;0.90;99.90;;;1.70;100.00;95539.81;5223595;28;20212;-59
2023/01/18 08:37:24;;;;;;;11.30;10.37;;;1.00;99.90;;;1.78;100.00;95542.75;5223253;28;20193;-60
2023/01/18 08:39:58;;;;;;;11.30;10.23;;;1.00;99.90;;;1.73;100.00;95549.19;5223476;28;20209;-61
2023/01/18 08:42:32;;;;;;;11.27;10.17;;;1.00;99.90;;;1.84;100.00;95552.28;5222316;28;20223;-60
2023/01/18 08:45:07;;;;;;;11.53;10.43;;;1.00;99.90;;;1.78;100.00;95562.91;5223232;28;20214;-60
2023/01/18 08:47:41;;;;;;;11.77;10.67;;;1.10;99.90;;;1.80;100.00;95568.84;5223405;28;20290;-61
2023/01/18 08:50:14;;;;;;;10.30;9.30;;;1.10;99.90;;;1.82;100.00;95571.47;5223829;28;20303;-58
2023/01/18 08:52:47;;;;;;;9.93;9.03;;;1.10;99.90;;;1.83;100.00;95581.59;5223264;28;20223;-59
2023/01/18 08:55:21;;;;;;;9.63;8.83;;;1.10;99.90;;;1.84;100.00;95587.53;5222479;28;20208;-59
2023/01/18 08:57:57;;;;;;;8.70;7.97;;;1.10;99.90;;;1.83;100.00;95589.16;5223583;28;20207;-59
2023/01/18 09:00:30;;;;;;;9.03;8.23;;;1.10;99.90;;;1.91;100.00;95594.63;5222997;28;20681;-60
2023/01/18 09:03:05;;;;;;;8.97;8.17;;;1.10;99.90;;;2.02;100.00;95598.56;5223292;28;20225;-61
2023/01/18 09:05:39;;;;;;;10.27;9.27;;;1.10;99.90;;;1.90;100.00;95600.44;5223362;28;20213;-59
2023/01/18 09:08:12;;;;;;;9.83;8.97;;;1.10;99.90;;;1.98;100.00;95607.63;5224322;28;20681;-60
2023/01/18 09:10:45;;;;;;;9.87;8.50;;;1.10;99.90;;;1.96;100.00;95608.31;5226002;28;20200;-59
2023/01/18 09:13:19;;;;;;;9.70;8.90;;;1.20;99.90;;;1.97;100.00;95613.44;5226839;28;20251;-59
2023/01/18 09:15:59;;;;;;;9.23;8.53;;;1.20;99.90;;;2.00;100.00;95623.69;5227239;28;20204;-59
2023/01/18 09:18:32;;;;;;;10.60;9.70;;;1.30;99.90;;;2.08;100.00;95624.06;5226890;28;20197;-60
2023/01/18 09:21:07;;;;;;;11.90;10.80;;;1.30;99.90;;;2.04;100.00;95632.28;5225656;28;20583;-59
2023/01/18 09:23:42;;;;;;;12.40;11.20;;;1.20;99.90;;;1.98;100.00;95637.00;5222517;28;20258;-59
2023/01/18 09:26:17;;;;;;;12.97;11.77;;;1.10;99.90;;;1.90;100.00;95640.75;5226851;28;20230;-60
2023/01/18 09:28:53;;;;;;;12.50;11.40;;;1.10;99.90;;;1.95;100.00;95659.50;5226758;28;20295;-58
2023/01/18 09:31:27;;;;;;;12.37;11.20;;;1.10;99.90;;;1.75;100.00;95656.75;5226886;28;20201;-59
2023/01/18 09:34:00;;;;;;;13.07;11.77;;;1.00;99.90;;;1.75;100.00;95664.31;5226111;28;20218;-60
2023/01/18 09:36:51;;;;;;;15.77;14.20;;;1.10;99.90;;;1.92;100.00;95677.84;5226759;28;20651;-55
2023/01/18 09:39:24;;;;;;;13.20;11.93;;;1.10;99.90;;;1.98;100.00;95679.81;5226385;28;20589;-59
2023/01/18 09:42:01;;;;;;;13.07;11.97;;;1.20;99.90;;;2.03;100.00;95685.94;5226218;28;20225;-59
2023/01/18 09:44:41;;;;;;;11.97;10.87;;;1.10;99.90;;;1.97;100.00;95685.63;5226367;28;20228;-59
2023/01/18 09:47:20;;;;;;;12.90;11.77;;;1.10;99.90;;;2.02;100.00;95682.56;5223557;28;20251;-59
2023/01/18 09:49:56;;;;;;;12.60;11.50;;;1.10;99.90;;;2.00;100.00;95691.72;5224435;28;20300;-57
2023/01/18 09:52:43;;;;;;;12.67;11.57;;;1.10;99.90;;;1.88;100.00;95695.19;5226337;28;20819;-57
2023/01/18 09:55:23;;;;;;;12.37;11.23;;;1.10;99.90;;;1.99;100.00;95704.22;5226130;28;20211;-60
2023/01/18 09:58:25;;;;;;;12.23;11.13;;;1.10;99.90;;;1.89;100.00;95705.38;5226280;28;20697;-59
2023/01/18 10:01:05;;;;;;;12.77;11.60;;;1.10;99.90;;;1.94;100.00;95713.16;5224643;28;20287;-61
2023/01/18 10:03:49;;;;;;;12.67;11.47;;;1.20;99.90;;;2.01;100.00;95720.28;5226268;28;20223;-56
2023/01/18 10:06:27;;;;;;;11.53;10.53;;;1.20;99.90;;;1.93;100.00;95719.00;5224179;28;20283;-58
2023/01/18 10:09:04;;;;;;;12.70;11.70;;;1.10;99.90;;;1.93;100.00;95719.00;5230687;28;20207;-58
2023/01/18 10:11:46;;;;;;;12.23;11.13;;;1.10;99.90;;;1.97;100.00;95728.44;5219390;28;20228;-60
2023/01/18 10:14:27;;;;;;;11.43;10.43;;;1.10;99.90;;;2.04;100.00;95733.03;5225910;28;20259;-60
2023/01/18 10:17:10;;;;;;;10.60;9.80;;;1.20;99.90;;;2.08;100.00;95732.41;5224496;28;20244;-58
2023/01/18 10:19:44;;;;;;;11.10;10.00;;;1.10;99.90;;;1.93;100.00;95737.47;5224859;28;20327;-61
2023/01/18 10:22:23;;;;;;;11.53;10.47;;;1.10;99.90;;;1.78;100.00;95744.19;5225428;28;20248;-61
2023/01/18 10:25:03;;;;;;;10.97;10.10;;;1.00;99.90;;;1.88;100.00;95748.09;5226124;28;20273;-57
2023/01/18 10:27:54;;;;;;;11.60;10.63;;;1.10;99.90;;;1.89;100.00;95753.22;5217538;28;20677;-59
2023/01/18 10:30:45;;;;;;;10.87;9.87;;;1.10;99.90;;;1.90;100.00;95754.94;5225048;28;20202;-60
2023/01/18 10:33:23;;;;;;;10.67;9.80;;;1.10;99.90;;;1.85;100.00;95750.44;5225730;28;20583;-59
2023/01/18 10:36:02;;;;;;;9.87;9.13;;;1.00;99.90;;;1.86;100.00;95759.72;5225720;28;20211;-58
2023/01/18 10:38:36;;;;;;;10.70;9.83;;;1.10;99.90;;;1.87;100.00;95764.00;5225270;28;20208;-58
2023/01/18 10:41:19;;;;;;;11.00;9.90;;;1.10;99.90;;;1.97;100.00;95767.09;5225059;28;20208;-58
2023/01/18 10:43:52;;;;;;;11.00;10.00;;;1.10;99.90;;;1.94;100.00;95771.94;5224484;28;20232;-59
2023/01/18 10:46:25;;;;;;;10.90;9.80;;;1.10;99.90;;;1.86;100.00;95772.31;5223659;28;20211;-57
2023/01/18 10:49:01;;;;;;;10.70;9.90;;;1.10;99.90;;;2.08;100.00;95779.41;5222992;28;20204;-59
2023/01/18 10:51:37;;;;;;;12.77;11.53;;;1.10;99.90;;;2.00;100.00;95787.44;5220849;28;20267;-61
2023/01/18 10:54:26;;;;;;;11.50;10.57;;;1.20;99.90;;;2.04;100.00;95783.44;5228981;28;20252;-59
2023/01/18 10:57:05;;;;;;;12.63;11.63;;;1.20;99.90;;;2.07;100.00;95782.72;5239206;28;20204;-58
2023/01/18 10:59:40;;;;;;;13.00;12.00;;;1.20;99.90;;;2.09;100.00;95781.16;5220647;28;20259;-57
2023/01/18 11:02:23;;;;;;;12.47;11.17;;;1.20;99.90;;;2.24;100.00;95787.91;5226300;28;20240;-57
2023/01/18 11:05:19;;;;;;;12.33;11.27;;;1.20;99.90;;;2.12;100.00;95796.44;5237034;28;20214;-56
2023/01/18 11:08:11;;;;;;;12.43;11.40;;;1.30;99.90;;;2.08;100.00;95800.44;5228543;28;20201;-59
2023/01/18 11:10:44;;;;;;;11.37;10.37;;;1.30;99.90;;;2.14;100.00;95805.81;5229146;28;20208;-59
2023/01/18 11:13:26;;;;;;;11.67;10.77;;;1.30;99.90;;;2.17;100.00;95805.97;5222721;28;20244;-59
2023/01/18 11:16:21;;;;;;;10.67;9.83;;;1.20;99.90;;;2.11;100.00;95808.16;5232951;28;20292;-59
2023/01/18 11:18:58;;;;;;;11.30;10.40;;;1.30;99.90;;;2.30;100.00;95802.50;5223227;28;20222;-58
2023/01/18 11:21:45;;;;;;;10.73;9.93;;;1.40;99.90;;;2.31;100.00;95814.31;5214899;28;20210;-57
2023/01/18 11:24:26;;;;;;;10.80;9.87;;;1.40;99.90;;;2.12;100.00;95817.47;5223843;28;20315;-59